sensor_id;sensor_type;location;lat;lon;timestamp;temperature;humidity
37240;DHT22;23130;48.760;9.178;2023-07-08T00:00:42;21.50;72.30
37240;DHT22;23130;48.760;9.178;2023-07-08T00:03:08;21.50;72.20
37240;DHT22;23130;48.760;9.178;2023-07-08T00:05:34;21.50;72.50
37240;DHT22;23130;48.760;9.178;2023-07-08T00:08:00;21.60;72.10
37240;DHT22;23130;48.760;9.178;2023-07-08T00:10:27;21.70;72.30
37240;DHT22;23130;48.760;9.178;2023-07-08T00:12:55;21.70;71.90
37240;DHT22;23130;48.760;9.178;2023-07-08T00:15:25;21.70;72.70
37240;DHT22;23130;48.760;9.178;2023-07-08T00:17:51;21.70;72.30
37240;DHT22;23130;48.760;9.178;2023-07-08T00:20:20;21.70;72.50
37240;DHT22;23130;48.760;9.178;2023-07-08T00:22:47;21.70;72.10
37240;DHT22;23130;48.760;9.178;2023-07-08T00:25:18;21.70;72.00
37240;DHT22;23130;48.760;9.178;2023-07-08T00:27:50;21.80;72.10
37240;DHT22;23130;48.760;9.178;2023-07-08T00:30:30;21.80;72.00
37240;DHT22;23130;48.760;9.178;2023-07-08T00:32:57;21.80;71.90
37240;DHT22;23130;48.760;9.178;2023-07-08T00:35:41;21.80;72.00
37240;DHT22;23130;48.760;9.178;2023-07-08T00:38:17;21.70;72.10
37240;DHT22;23130;48.760;9.178;2023-07-08T00:40:52;21.60;72.30
37240;DHT22;23130;48.760;9.178;2023-07-08T00:48:51;21.40;72.70
37240;DHT22;23130;48.760;9.178;2023-07-08T00:51:19;21.50;72.00
37240;DHT22;23130;48.760;9.178;2023-07-08T00:53:45;21.50;72.00
37240;DHT22;23130;48.760;9.178;2023-07-08T00:56:40;21.50;72.00
37240;DHT22;23130;48.760;9.178;2023-07-08T01:01:58;21.30;72.10
37240;DHT22;23130;48.760;9.178;2023-07-08T01:04:34;21.20;72.50
37240;DHT22;23130;48.760;9.178;2023-07-08T01:07:01;21.10;72.60
37240;DHT22;23130;48.760;9.178;2023-07-08T01:09:32;21.10;72.40
37240;DHT22;23130;48.760;9.178;2023-07-08T01:12:03;21.10;72.50
37240;DHT22;23130;48.760;9.178;2023-07-08T01:14:32;21.00;72.50
37240;DHT22;23130;48.760;9.178;2023-07-08T01:16:59;21.00;72.70
37240;DHT22;23130;48.760;9.178;2023-07-08T01:19:26;20.90;72.80
37240;DHT22;23130;48.760;9.178;2023-07-08T01:22:05;20.80;73.50
37240;DHT22;23130;48.760;9.178;2023-07-08T01:24:34;20.60;76.10
37240;DHT22;23130;48.760;9.178;2023-07-08T01:27:01;20.30;75.70
37240;DHT22;23130;48.760;9.178;2023-07-08T01:29:27;20.20;75.90
37240;DHT22;23130;48.760;9.178;2023-07-08T01:31:55;20.00;75.40
37240;DHT22;23130;48.760;9.178;2023-07-08T01:34:21;20.00;75.10
37240;DHT22;23130;48.760;9.178;2023-07-08T01:36:52;19.90;74.90
37240;DHT22;23130;48.760;9.178;2023-07-08T01:39:20;19.90;75.10
37240;DHT22;23130;48.760;9.178;2023-07-08T01:41:46;19.80;77.00
37240;DHT22;23130;48.760;9.178;2023-07-08T01:44:31;19.70;78.10
37240;DHT22;23130;48.760;9.178;2023-07-08T01:47:21;19.60;78.90
37240;DHT22;23130;48.760;9.178;2023-07-08T01:49:47;19.40;78.90
37240;DHT22;23130;48.760;9.178;2023-07-08T01:52:16;19.20;79.20
37240;DHT22;23130;48.760;9.178;2023-07-08T01:54:43;19.20;79.20
37240;DHT22;23130;48.760;9.178;2023-07-08T01:57:09;19.10;79.00
37240;DHT22;23130;48.760;9.178;2023-07-08T01:59:34;19.00;79.10
37240;DHT22;23130;48.760;9.178;2023-07-08T02:02:00;19.10;78.90
37240;DHT22;23130;48.760;9.178;2023-07-08T02:04:26;19.10;79.00
37240;DHT22;23130;48.760;9.178;2023-07-08T02:06:57;19.00;79.50
37240;DHT22;23130;48.760;9.178;2023-07-08T02:09:24;19.00;79.60
37240;DHT22;23130;48.760;9.178;2023-07-08T02:11:53;19.00;79.40
37240;DHT22;23130;48.760;9.178;2023-07-08T02:14:19;18.90;79.40
37240;DHT22;23130;48.760;9.178;2023-07-08T02:16:45;18.90;79.50
37240;DHT22;23130;48.760;9.178;2023-07-08T02:19:11;18.80;78.90
37240;DHT22;23130;48.760;9.178;2023-07-08T02:21:37;18.80;78.70
37240;DHT22;23130;48.760;9.178;2023-07-08T02:24:04;19.00;78.30
37240;DHT22;23130;48.760;9.178;2023-07-08T02:26:30;19.20;77.80
37240;DHT22;23130;48.760;9.178;2023-07-08T02:28:59;19.20;77.90
37240;DHT22;23130;48.760;9.178;2023-07-08T02:31:27;19.30;77.80
37240;DHT22;23130;48.760;9.178;2023-07-08T02:33:53;19.40;78.00
37240;DHT22;23130;48.760;9.178;2023-07-08T02:36:20;19.40;77.80
37240;DHT22;23130;48.760;9.178;2023-07-08T02:38:45;19.40;77.40
37240;DHT22;23130;48.760;9.178;2023-07-08T02:41:11;19.40;77.50
37240;DHT22;23130;48.760;9.178;2023-07-08T02:43:37;19.50;77.60
37240;DHT22;23130;48.760;9.178;2023-07-08T02:46:03;19.50;78.10
37240;DHT22;23130;48.760;9.178;2023-07-08T02:48:29;19.50;78.60
37240;DHT22;23130;48.760;9.178;2023-07-08T02:51:07;19.50;78.80
37240;DHT22;23130;48.760;9.178;2023-07-08T02:53:34;19.40;79.00
37240;DHT22;23130;48.760;9.178;2023-07-08T02:55:59;19.50;79.10
37240;DHT22;23130;48.760;9.178;2023-07-08T02:58:25;19.40;78.90
37240;DHT22;23130;48.760;9.178;2023-07-08T03:00:55;19.40;78.40
37240;DHT22;23130;48.760;9.178;2023-07-08T03:03:21;19.40;78.20
37240;DHT22;23130;48.760;9.178;2023-07-08T03:06:03;19.50;79.00
37240;DHT22;23130;48.760;9.178;2023-07-08T03:08:30;19.50;79.40
37240;DHT22;23130;48.760;9.178;2023-07-08T03:10:59;19.60;78.60
37240;DHT22;23130;48.760;9.178;2023-07-08T03:13:27;19.60;78.50
37240;DHT22;23130;48.760;9.178;2023-07-08T03:15:54;19.70;79.20
37240;DHT22;23130;48.760;9.178;2023-07-08T03:18:21;19.70;78.50
37240;DHT22;23130;48.760;9.178;2023-07-08T03:20:48;19.70;79.10
37240;DHT22;23130;48.760;9.178;2023-07-08T03:23:14;19.90;78.90
37240;DHT22;23130;48.760;9.178;2023-07-08T03:25:40;20.00;78.70
37240;DHT22;23130;48.760;9.178;2023-07-08T03:28:07;19.90;79.00
37240;DHT22;23130;48.760;9.178;2023-07-08T03:30:33;19.80;79.50
37240;DHT22;23130;48.760;9.178;2023-07-08T03:33:00;19.70;81.50
37240;DHT22;23130;48.760;9.178;2023-07-08T03:35:26;19.70;82.50
37240;DHT22;23130;48.760;9.178;2023-07-08T03:37:52;19.60;81.60
37240;DHT22;23130;48.760;9.178;2023-07-08T03:40:18;19.50;80.80
37240;DHT22;23130;48.760;9.178;2023-07-08T03:42:44;19.50;80.50
37240;DHT22;23130;48.760;9.178;2023-07-08T03:45:09;19.50;81.40
37240;DHT22;23130;48.760;9.178;2023-07-08T03:47:35;19.50;83.10
37240;DHT22;23130;48.760;9.178;2023-07-08T03:50:01;19.40;83.30
37240;DHT22;23130;48.760;9.178;2023-07-08T03:52:27;19.40;83.50
37240;DHT22;23130;48.760;9.178;2023-07-08T03:54:52;19.30;83.60
37240;DHT22;23130;48.760;9.178;2023-07-08T03:57:18;19.20;83.10
37240;DHT22;23130;48.760;9.178;2023-07-08T03:59:43;19.30;83.40
37240;DHT22;23130;48.760;9.178;2023-07-08T04:02:10;19.30;83.50
37240;DHT22;23130;48.760;9.178;2023-07-08T04:04:37;19.30;82.60
37240;DHT22;23130;48.760;9.178;2023-07-08T04:07:04;19.40;82.90
37240;DHT22;23130;48.760;9.178;2023-07-08T04:09:29;19.50;82.70
37240;DHT22;23130;48.760;9.178;2023-07-08T04:11:55;19.60;82.40
37240;DHT22;23130;48.760;9.178;2023-07-08T04:14:21;19.80;82.30
37240;DHT22;23130;48.760;9.178;2023-07-08T04:16:52;19.90;81.90
37240;DHT22;23130;48.760;9.178;2023-07-08T04:19:19;20.00;81.50
37240;DHT22;23130;48.760;9.178;2023-07-08T04:21:48;20.20;81.60
37240;DHT22;23130;48.760;9.178;2023-07-08T04:24:15;20.30;81.50
37240;DHT22;23130;48.760;9.178;2023-07-08T04:26:41;20.60;81.20
37240;DHT22;23130;48.760;9.178;2023-07-08T04:29:10;21.10;80.40
37240;DHT22;23130;48.760;9.178;2023-07-08T04:31:36;22.10;79.70
37240;DHT22;23130;48.760;9.178;2023-07-08T04:34:02;23.50;77.40
37240;DHT22;23130;48.760;9.178;2023-07-08T04:36:28;24.90;75.00
37240;DHT22;23130;48.760;9.178;2023-07-08T04:38:53;25.90;73.40
37240;DHT22;23130;48.760;9.178;2023-07-08T04:41:19;26.80;71.80
37240;DHT22;23130;48.760;9.178;2023-07-08T04:43:44;27.40;71.10
37240;DHT22;23130;48.760;9.178;2023-07-08T04:49:05;28.40;69.30
37240;DHT22;23130;48.760;9.178;2023-07-08T04:51:31;27.90;69.70
37240;DHT22;23130;48.760;9.178;2023-07-08T04:53:57;27.90;71.20
37240;DHT22;23130;48.760;9.178;2023-07-08T04:56:24;28.00;69.00
37240;DHT22;23130;48.760;9.178;2023-07-08T04:58:50;27.90;69.30
37240;DHT22;23130;48.760;9.178;2023-07-08T05:01:19;28.10;71.20
37240;DHT22;23130;48.760;9.178;2023-07-08T05:03:44;28.50;70.50
37240;DHT22;23130;48.760;9.178;2023-07-08T05:06:10;29.00;70.60
37240;DHT22;23130;48.760;9.178;2023-07-08T05:08:36;29.00;70.10
37240;DHT22;23130;48.760;9.178;2023-07-08T05:11:01;29.40;68.10
37240;DHT22;23130;48.760;9.178;2023-07-08T05:13:27;29.60;67.70
37240;DHT22;23130;48.760;9.178;2023-07-08T05:15:52;30.50;68.60
37240;DHT22;23130;48.760;9.178;2023-07-08T05:18:18;31.00;68.10
37240;DHT22;23130;48.760;9.178;2023-07-08T05:20:50;31.30;67.40
37240;DHT22;23130;48.760;9.178;2023-07-08T05:23:16;31.80;66.80
37240;DHT22;23130;48.760;9.178;2023-07-08T05:25:43;32.50;65.80
37240;DHT22;23130;48.760;9.178;2023-07-08T05:28:11;32.80;64.50
37240;DHT22;23130;48.760;9.178;2023-07-08T05:30:39;33.10;64.00
37240;DHT22;23130;48.760;9.178;2023-07-08T05:33:04;32.80;63.70
37240;DHT22;23130;48.760;9.178;2023-07-08T05:35:30;31.30;65.80
37240;DHT22;23130;48.760;9.178;2023-07-08T05:37:55;30.20;67.30
37240;DHT22;23130;48.760;9.178;2023-07-08T05:40:21;29.10;68.70
37240;DHT22;23130;48.760;9.178;2023-07-08T05:42:47;28.30;70.30
37240;DHT22;23130;48.760;9.178;2023-07-08T05:45:12;27.60;70.90
37240;DHT22;23130;48.760;9.178;2023-07-08T05:47:38;27.10;72.10
37240;DHT22;23130;48.760;9.178;2023-07-08T05:50:04;26.60;73.20
37240;DHT22;23130;48.760;9.178;2023-07-08T05:52:30;26.20;72.50
37240;DHT22;23130;48.760;9.178;2023-07-08T05:54:55;26.30;73.60
37240;DHT22;23130;48.760;9.178;2023-07-08T05:57:21;26.50;73.10
37240;DHT22;23130;48.760;9.178;2023-07-08T05:59:48;27.10;73.10
37240;DHT22;23130;48.760;9.178;2023-07-08T06:02:16;27.50;71.10
37240;DHT22;23130;48.760;9.178;2023-07-08T06:04:42;27.70;71.40
37240;DHT22;23130;48.760;9.178;2023-07-08T06:07:08;27.60;71.20
37240;DHT22;23130;48.760;9.178;2023-07-08T06:09:37;27.60;70.90
37240;DHT22;23130;48.760;9.178;2023-07-08T06:12:03;27.50;71.50
37240;DHT22;23130;48.760;9.178;2023-07-08T06:14:28;27.80;70.50
37240;DHT22;23130;48.760;9.178;2023-07-08T06:16:54;28.40;70.10
37240;DHT22;23130;48.760;9.178;2023-07-08T06:19:20;28.90;69.70
37240;DHT22;23130;48.760;9.178;2023-07-08T06:21:46;29.70;68.90
37240;DHT22;23130;48.760;9.178;2023-07-08T06:24:12;30.50;66.60
37240;DHT22;23130;48.760;9.178;2023-07-08T06:26:37;30.60;66.90
37240;DHT22;23130;48.760;9.178;2023-07-08T06:29:03;30.90;67.20
37240;DHT22;23130;48.760;9.178;2023-07-08T06:31:30;31.30;66.10
37240;DHT22;23130;48.760;9.178;2023-07-08T06:33:55;31.50;66.20
37240;DHT22;23130;48.760;9.178;2023-07-08T06:36:21;31.30;67.10
37240;DHT22;23130;48.760;9.178;2023-07-08T06:38:48;30.70;67.30
37240;DHT22;23130;48.760;9.178;2023-07-08T06:41:13;29.70;68.70
37240;DHT22;23130;48.760;9.178;2023-07-08T06:43:39;29.00;70.30
37240;DHT22;23130;48.760;9.178;2023-07-08T06:46:04;28.30;72.00
37240;DHT22;23130;48.760;9.178;2023-07-08T06:48:32;28.00;73.00
37240;DHT22;23130;48.760;9.178;2023-07-08T06:50:57;28.00;73.20
37240;DHT22;23130;48.760;9.178;2023-07-08T06:53:23;28.10;73.10
37240;DHT22;23130;48.760;9.178;2023-07-08T06:55:49;28.40;72.30
37240;DHT22;23130;48.760;9.178;2023-07-08T06:58:15;28.70;71.90
37240;DHT22;23130;48.760;9.178;2023-07-08T07:00:44;28.70;72.00
37240;DHT22;23130;48.760;9.178;2023-07-08T07:03:10;28.60;72.50
37240;DHT22;23130;48.760;9.178;2023-07-08T07:05:36;28.40;72.50
37240;DHT22;23130;48.760;9.178;2023-07-08T07:08:02;28.10;73.60
37240;DHT22;23130;48.760;9.178;2023-07-08T07:10:27;27.80;73.90
37240;DHT22;23130;48.760;9.178;2023-07-08T07:12:53;27.50;75.10
37240;DHT22;23130;48.760;9.178;2023-07-08T07:15:18;27.30;76.00
37240;DHT22;23130;48.760;9.178;2023-07-08T07:17:44;27.10;76.80
37240;DHT22;23130;48.760;9.178;2023-07-08T07:20:10;26.90;77.20
37240;DHT22;23130;48.760;9.178;2023-07-08T07:22:36;26.90;78.10
37240;DHT22;23130;48.760;9.178;2023-07-08T07:25:04;26.70;77.90
37240;DHT22;23130;48.760;9.178;2023-07-08T07:27:30;26.70;77.90
37240;DHT22;23130;48.760;9.178;2023-07-08T07:29:55;26.60;79.10
37240;DHT22;23130;48.760;9.178;2023-07-08T07:32:23;26.70;78.90
37240;DHT22;23130;48.760;9.178;2023-07-08T07:34:50;26.80;79.10
37240;DHT22;23130;48.760;9.178;2023-07-08T07:37:17;26.90;78.10
37240;DHT22;23130;48.760;9.178;2023-07-08T07:39:44;27.00;79.20
37240;DHT22;23130;48.760;9.178;2023-07-08T07:42:11;27.10;79.60
37240;DHT22;23130;48.760;9.178;2023-07-08T07:44:37;27.10;79.90
37240;DHT22;23130;48.760;9.178;2023-07-08T07:47:05;27.10;79.60
37240;DHT22;23130;48.760;9.178;2023-07-08T07:49:31;27.20;79.60
37240;DHT22;23130;48.760;9.178;2023-07-08T07:51:57;27.40;80.00
37240;DHT22;23130;48.760;9.178;2023-07-08T07:54:23;27.50;79.30
37240;DHT22;23130;48.760;9.178;2023-07-08T07:56:48;27.80;79.50
37240;DHT22;23130;48.760;9.178;2023-07-08T07:59:14;28.90;77.00
37240;DHT22;23130;48.760;9.178;2023-07-08T08:01:42;30.10;75.30
37240;DHT22;23130;48.760;9.178;2023-07-08T08:04:12;30.50;74.50
37240;DHT22;23130;48.760;9.178;2023-07-08T08:06:38;31.70;73.10
37240;DHT22;23130;48.760;9.178;2023-07-08T08:09:04;32.20;73.00
37240;DHT22;23130;48.760;9.178;2023-07-08T08:11:31;32.80;71.90
37240;DHT22;23130;48.760;9.178;2023-07-08T08:13:58;33.20;71.80
37240;DHT22;23130;48.760;9.178;2023-07-08T08:16:25;33.30;70.20
37240;DHT22;23130;48.760;9.178;2023-07-08T08:18:50;34.00;69.60
37240;DHT22;23130;48.760;9.178;2023-07-08T08:21:16;34.10;69.30
37240;DHT22;23130;48.760;9.178;2023-07-08T08:23:42;34.10;68.70
37240;DHT22;23130;48.760;9.178;2023-07-08T08:26:08;33.20;69.50
37240;DHT22;23130;48.760;9.178;2023-07-08T08:28:33;32.40;69.50
37240;DHT22;23130;48.760;9.178;2023-07-08T08:30:59;31.70;71.20
37240;DHT22;23130;48.760;9.178;2023-07-08T08:33:24;31.40;71.10
37240;DHT22;23130;48.760;9.178;2023-07-08T08:35:50;31.60;71.60
37240;DHT22;23130;48.760;9.178;2023-07-08T08:38:15;32.10;71.20
37240;DHT22;23130;48.760;9.178;2023-07-08T08:40:43;31.90;69.10
37240;DHT22;23130;48.760;9.178;2023-07-08T08:43:22;31.70;70.50
37240;DHT22;23130;48.760;9.178;2023-07-08T08:49:02;30.90;71.60
37240;DHT22;23130;48.760;9.178;2023-07-08T08:51:31;30.90;72.20
37240;DHT22;23130;48.760;9.178;2023-07-08T08:53:58;30.60;73.10
37240;DHT22;23130;48.760;9.178;2023-07-08T08:56:28;30.70;73.50
37240;DHT22;23130;48.760;9.178;2023-07-08T08:59:11;30.70;72.10
37240;DHT22;23130;48.760;9.178;2023-07-08T09:01:39;30.80;71.70
37240;DHT22;23130;48.760;9.178;2023-07-08T09:04:15;31.10;72.00
37240;DHT22;23130;48.760;9.178;2023-07-08T09:06:42;31.50;71.50
37240;DHT22;23130;48.760;9.178;2023-07-08T09:12:21;32.00;70.50
37240;DHT22;23130;48.760;9.178;2023-07-08T09:14:50;32.20;69.80
37240;DHT22;23130;48.760;9.178;2023-07-08T09:17:22;32.10;70.30
37240;DHT22;23130;48.760;9.178;2023-07-08T09:19:59;31.80;70.00
37240;DHT22;23130;48.760;9.178;2023-07-08T09:22:38;31.40;71.40
37240;DHT22;23130;48.760;9.178;2023-07-08T09:27:45;31.00;72.70
37240;DHT22;23130;48.760;9.178;2023-07-08T09:30:14;31.10;72.20
37240;DHT22;23130;48.760;9.178;2023-07-08T09:32:41;31.10;72.30
37240;DHT22;23130;48.760;9.178;2023-07-08T09:35:08;31.00;72.40
37240;DHT22;23130;48.760;9.178;2023-07-08T09:37:38;31.00;72.10
37240;DHT22;23130;48.760;9.178;2023-07-08T09:40:21;31.00;72.40
37240;DHT22;23130;48.760;9.178;2023-07-08T09:42:52;30.70;71.20
37240;DHT22;23130;48.760;9.178;2023-07-08T09:45:23;30.50;71.80
37240;DHT22;23130;48.760;9.178;2023-07-08T09:47:53;30.60;72.50
37240;DHT22;23130;48.760;9.178;2023-07-08T09:50:20;30.60;72.90
37240;DHT22;23130;48.760;9.178;2023-07-08T09:52:48;30.60;71.40
37240;DHT22;23130;48.760;9.178;2023-07-08T09:55:15;30.60;71.80
37240;DHT22;23130;48.760;9.178;2023-07-08T09:57:41;30.50;71.70
37240;DHT22;23130;48.760;9.178;2023-07-08T10:00:12;30.80;71.70
37240;DHT22;23130;48.760;9.178;2023-07-08T10:02:56;31.00;70.80
37240;DHT22;23130;48.760;9.178;2023-07-08T10:05:43;30.90;69.80
37240;DHT22;23130;48.760;9.178;2023-07-08T10:08:37;30.70;70.60
37240;DHT22;23130;48.760;9.178;2023-07-08T10:13:46;30.30;72.90
37240;DHT22;23130;48.760;9.178;2023-07-08T10:18:41;29.90;73.60
37240;DHT22;23130;48.760;9.178;2023-07-08T10:21:34;29.70;73.20
37240;DHT22;23130;48.760;9.178;2023-07-08T10:27:08;29.60;75.10
37240;DHT22;23130;48.760;9.178;2023-07-08T10:35:12;30.30;74.70
37240;DHT22;23130;48.760;9.178;2023-07-08T10:51:21;31.10;72.30
37240;DHT22;23130;48.760;9.178;2023-07-08T10:56:41;31.00;72.70
37240;DHT22;23130;48.760;9.178;2023-07-08T11:02:26;30.90;73.10
37240;DHT22;23130;48.760;9.178;2023-07-08T11:05:07;30.80;73.30
37240;DHT22;23130;48.760;9.178;2023-07-08T11:07:45;30.30;73.10
37240;DHT22;23130;48.760;9.178;2023-07-08T11:10:22;30.00;74.30
37240;DHT22;23130;48.760;9.178;2023-07-08T11:13:13;30.10;74.30
37240;DHT22;23130;48.760;9.178;2023-07-08T11:16:10;29.90;73.20
37240;DHT22;23130;48.760;9.178;2023-07-08T11:18:54;29.90;74.50
37240;DHT22;23130;48.760;9.178;2023-07-08T11:21:33;30.00;76.00
37240;DHT22;23130;48.760;9.178;2023-07-08T11:24:31;30.10;74.40
37240;DHT22;23130;48.760;9.178;2023-07-08T11:30:04;30.50;74.10
37240;DHT22;23130;48.760;9.178;2023-07-08T11:32:33;30.80;72.90
37240;DHT22;23130;48.760;9.178;2023-07-08T11:35:02;31.20;73.80
37240;DHT22;23130;48.760;9.178;2023-07-08T11:37:29;31.50;73.80
37240;DHT22;23130;48.760;9.178;2023-07-08T11:40:00;31.80;73.10
37240;DHT22;23130;48.760;9.178;2023-07-08T11:42:44;32.20;72.60
37240;DHT22;23130;48.760;9.178;2023-07-08T11:47:48;32.10;71.10
37240;DHT22;23130;48.760;9.178;2023-07-08T11:50:32;32.20;71.30
37240;DHT22;23130;48.760;9.178;2023-07-08T11:53:03;32.00;71.60
37240;DHT22;23130;48.760;9.178;2023-07-08T11:55:47;31.90;72.30
37240;DHT22;23130;48.760;9.178;2023-07-08T11:58:24;31.90;71.20
37240;DHT22;23130;48.760;9.178;2023-07-08T12:03:34;31.70;71.70
37240;DHT22;23130;48.760;9.178;2023-07-08T12:06:00;31.90;71.60
37240;DHT22;23130;48.760;9.178;2023-07-08T12:08:36;31.70;72.00
37240;DHT22;23130;48.760;9.178;2023-07-08T12:11:03;31.60;70.60
37240;DHT22;23130;48.760;9.178;2023-07-08T12:13:34;31.20;72.10
37240;DHT22;23130;48.760;9.178;2023-07-08T12:16:01;31.00;71.80
37240;DHT22;23130;48.760;9.178;2023-07-08T12:18:34;30.80;72.10
37240;DHT22;23130;48.760;9.178;2023-07-08T12:21:02;30.80;73.20
37240;DHT22;23130;48.760;9.178;2023-07-08T12:23:28;31.00;72.00
37240;DHT22;23130;48.760;9.178;2023-07-08T12:25:55;31.20;71.70
37240;DHT22;23130;48.760;9.178;2023-07-08T12:28:23;31.20;70.80
37240;DHT22;23130;48.760;9.178;2023-07-08T12:30:49;31.20;70.50
37240;DHT22;23130;48.760;9.178;2023-07-08T12:33:28;31.30;71.70
37240;DHT22;23130;48.760;9.178;2023-07-08T12:35:55;31.60;71.90
37240;DHT22;23130;48.760;9.178;2023-07-08T12:41:14;32.10;70.80
37240;DHT22;23130;48.760;9.178;2023-07-08T12:43:40;31.90;69.50
37240;DHT22;23130;48.760;9.178;2023-07-08T12:46:09;32.00;69.60
37240;DHT22;23130;48.760;9.178;2023-07-08T12:48:36;31.90;69.50
37240;DHT22;23130;48.760;9.178;2023-07-08T12:51:03;31.80;70.30
37240;DHT22;23130;48.760;9.178;2023-07-08T12:53:29;31.70;70.40
37240;DHT22;23130;48.760;9.178;2023-07-08T12:55:57;31.50;71.30
37240;DHT22;23130;48.760;9.178;2023-07-08T12:58:25;31.70;69.70
37240;DHT22;23130;48.760;9.178;2023-07-08T13:00:53;31.60;69.60
37240;DHT22;23130;48.760;9.178;2023-07-08T13:03:23;31.70;70.30
37240;DHT22;23130;48.760;9.178;2023-07-08T13:05:50;31.90;69.90
37240;DHT22;23130;48.760;9.178;2023-07-08T13:08:21;31.90;70.00
37240;DHT22;23130;48.760;9.178;2023-07-08T13:10:54;32.10;69.50
37240;DHT22;23130;48.760;9.178;2023-07-08T13:13:25;32.00;68.10
37240;DHT22;23130;48.760;9.178;2023-07-08T13:15:52;32.00;68.90
37240;DHT22;23130;48.760;9.178;2023-07-08T13:18:23;32.10;69.50
37240;DHT22;23130;48.760;9.178;2023-07-08T13:20:52;32.10;68.70
37240;DHT22;23130;48.760;9.178;2023-07-08T13:23:19;32.20;68.30
37240;DHT22;23130;48.760;9.178;2023-07-08T13:25:49;32.20;68.50
37240;DHT22;23130;48.760;9.178;2023-07-08T13:28:22;32.20;69.00
37240;DHT22;23130;48.760;9.178;2023-07-08T13:31:01;32.40;69.10
37240;DHT22;23130;48.760;9.178;2023-07-08T13:33:34;32.40;67.40
37240;DHT22;23130;48.760;9.178;2023-07-08T13:36:04;32.50;67.70
37240;DHT22;23130;48.760;9.178;2023-07-08T13:38:38;32.40;67.10
37240;DHT22;23130;48.760;9.178;2023-07-08T13:41:06;32.50;67.50
37240;DHT22;23130;48.760;9.178;2023-07-08T13:43:34;32.40;66.00
37240;DHT22;23130;48.760;9.178;2023-07-08T13:46:03;32.40;66.80
37240;DHT22;23130;48.760;9.178;2023-07-08T13:48:36;32.50;66.60
37240;DHT22;23130;48.760;9.178;2023-07-08T13:51:05;32.50;65.50
37240;DHT22;23130;48.760;9.178;2023-07-08T13:58:52;31.90;67.40
37240;DHT22;23130;48.760;9.178;2023-07-08T14:01:24;32.20;66.80
37240;DHT22;23130;48.760;9.178;2023-07-08T14:03:52;32.30;68.00
37240;DHT22;23130;48.760;9.178;2023-07-08T14:06:21;32.40;67.30
37240;DHT22;23130;48.760;9.178;2023-07-08T14:08:47;32.10;67.20
37240;DHT22;23130;48.760;9.178;2023-07-08T14:11:16;31.80;67.10
37240;DHT22;23130;48.760;9.178;2023-07-08T14:13:42;31.70;68.40
37240;DHT22;23130;48.760;9.178;2023-07-08T14:16:24;31.70;69.40
37240;DHT22;23130;48.760;9.178;2023-07-08T14:18:50;31.90;68.70
37240;DHT22;23130;48.760;9.178;2023-07-08T14:21:17;32.10;68.90
37240;DHT22;23130;48.760;9.178;2023-07-08T14:23:43;32.40;69.10
37240;DHT22;23130;48.760;9.178;2023-07-08T14:26:10;32.40;68.50
37240;DHT22;23130;48.760;9.178;2023-07-08T14:28:36;32.50;68.00
37240;DHT22;23130;48.760;9.178;2023-07-08T14:31:02;32.60;68.20
37240;DHT22;23130;48.760;9.178;2023-07-08T14:33:27;32.70;67.90
37240;DHT22;23130;48.760;9.178;2023-07-08T14:35:53;32.70;67.30
37240;DHT22;23130;48.760;9.178;2023-07-08T14:38:18;32.60;67.30
37240;DHT22;23130;48.760;9.178;2023-07-08T14:40:45;32.50;67.90
37240;DHT22;23130;48.760;9.178;2023-07-08T14:43:18;32.50;67.70
37240;DHT22;23130;48.760;9.178;2023-07-08T14:45:54;32.80;67.80
37240;DHT22;23130;48.760;9.178;2023-07-08T14:48:20;33.00;66.70
37240;DHT22;23130;48.760;9.178;2023-07-08T14:50:46;33.30;67.20
37240;DHT22;23130;48.760;9.178;2023-07-08T14:53:16;33.50;66.90
37240;DHT22;23130;48.760;9.178;2023-07-08T14:55:43;33.70;66.70
37240;DHT22;23130;48.760;9.178;2023-07-08T14:58:22;34.00;66.20
37240;DHT22;23130;48.760;9.178;2023-07-08T15:00:50;34.10;65.80
37240;DHT22;23130;48.760;9.178;2023-07-08T15:03:16;34.20;64.70
37240;DHT22;23130;48.760;9.178;2023-07-08T15:05:42;33.80;65.40
37240;DHT22;23130;48.760;9.178;2023-07-08T15:08:08;33.50;66.50
37240;DHT22;23130;48.760;9.178;2023-07-08T15:10:34;33.40;66.40
37240;DHT22;23130;48.760;9.178;2023-07-08T15:13:00;33.50;66.60
37240;DHT22;23130;48.760;9.178;2023-07-08T15:15:30;33.70;66.90
37240;DHT22;23130;48.760;9.178;2023-07-08T15:17:58;34.00;66.50
37240;DHT22;23130;48.760;9.178;2023-07-08T15:20:24;34.10;65.80
37240;DHT22;23130;48.760;9.178;2023-07-08T15:22:51;34.20;65.30
37240;DHT22;23130;48.760;9.178;2023-07-08T15:25:17;34.10;66.10
37240;DHT22;23130;48.760;9.178;2023-07-08T15:27:50;34.20;65.50
37240;DHT22;23130;48.760;9.178;2023-07-08T15:30:19;34.30;64.70
37240;DHT22;23130;48.760;9.178;2023-07-08T15:32:48;34.20;64.30
37240;DHT22;23130;48.760;9.178;2023-07-08T15:35:16;34.00;65.40
37240;DHT22;23130;48.760;9.178;2023-07-08T15:37:42;33.90;65.50
37240;DHT22;23130;48.760;9.178;2023-07-08T15:40:08;33.90;65.50
37240;DHT22;23130;48.760;9.178;2023-07-08T15:42:35;34.00;65.00
37240;DHT22;23130;48.760;9.178;2023-07-08T15:45:35;34.00;64.80
37240;DHT22;23130;48.760;9.178;2023-07-08T15:47:54;34.10;64.70
37240;DHT22;23130;48.760;9.178;2023-07-08T15:50:25;34.00;64.40
37240;DHT22;23130;48.760;9.178;2023-07-08T15:52:52;33.90;65.00
37240;DHT22;23130;48.760;9.178;2023-07-08T15:55:32;33.60;64.30
37240;DHT22;23130;48.760;9.178;2023-07-08T15:58:11;33.50;63.90
37240;DHT22;23130;48.760;9.178;2023-07-08T16:00:39;33.50;65.00
37240;DHT22;23130;48.760;9.178;2023-07-08T16:03:11;33.60;65.20
37240;DHT22;23130;48.760;9.178;2023-07-08T16:05:37;33.60;64.80
37240;DHT22;23130;48.760;9.178;2023-07-08T16:08:03;33.40;66.20
37240;DHT22;23130;48.760;9.178;2023-07-08T16:10:30;33.40;67.00
37240;DHT22;23130;48.760;9.178;2023-07-08T16:12:55;33.40;66.50
37240;DHT22;23130;48.760;9.178;2023-07-08T16:15:31;33.40;66.60
37240;DHT22;23130;48.760;9.178;2023-07-08T16:17:58;33.20;65.90
37240;DHT22;23130;48.760;9.178;2023-07-08T16:20:25;33.10;66.60
37240;DHT22;23130;48.760;9.178;2023-07-08T16:22:52;33.00;65.90
37240;DHT22;23130;48.760;9.178;2023-07-08T16:25:23;32.90;66.80
37240;DHT22;23130;48.760;9.178;2023-07-08T16:27:50;32.70;67.00
37240;DHT22;23130;48.760;9.178;2023-07-08T16:30:19;32.70;66.80
37240;DHT22;23130;48.760;9.178;2023-07-08T16:32:46;32.70;66.90
37240;DHT22;23130;48.760;9.178;2023-07-08T16:35:14;32.80;66.50
37240;DHT22;23130;48.760;9.178;2023-07-08T16:37:40;32.70;66.20
37240;DHT22;23130;48.760;9.178;2023-07-08T16:40:14;32.70;67.40
37240;DHT22;23130;48.760;9.178;2023-07-08T16:42:42;32.90;66.50
37240;DHT22;23130;48.760;9.178;2023-07-08T16:45:10;32.90;66.50
37240;DHT22;23130;48.760;9.178;2023-07-08T16:47:36;33.00;66.20
37240;DHT22;23130;48.760;9.178;2023-07-08T16:50:02;32.90;65.80